createdAt,value
2019-03-21T00:00:50.165Z,99921.07
2019-03-21T00:03:13.832Z,99924.12
2019-03-21T00:05:43.636Z,99921.77
2019-03-21T00:08:13.679Z,99920.76
2019-03-21T00:11:28.098Z,99922.73
2019-03-21T00:14:06.905Z,99913.48
2019-03-21T00:16:32.652Z,99912.03
2019-03-21T00:19:02.450Z,99911.22
2019-03-21T00:21:32.241Z,99913.98
2019-03-21T00:24:02.037Z,99911.41
2019-03-21T00:26:31.889Z,99910.77
2019-03-21T00:29:01.657Z,99909.98
2019-03-21T00:31:31.453Z,99914.80
2019-03-21T00:34:01.222Z,99906.79
2019-03-21T00:36:31.038Z,99906.95
2019-03-21T00:39:00.845Z,99900.58
2019-03-21T00:41:45.000Z,99905.83
2019-03-21T00:44:18.078Z,99907.33
2019-03-21T00:46:41.841Z,99902.00
2019-03-21T00:49:11.637Z,99899.43
2019-03-21T00:51:41.470Z,99903.91
2019-03-21T00:54:11.242Z,99907.78
2019-03-21T00:56:41.061Z,99909.63
2019-03-21T00:59:10.869Z,99914.09
2019-03-21T01:01:40.693Z,99910.66
2019-03-21T01:04:10.497Z,99912.78
2019-03-21T01:06:40.277Z,99909.63
2019-03-21T01:09:11.477Z,99908.30
2019-03-21T01:11:41.267Z,99913.53
2019-03-21T01:14:11.042Z,99917.93
2019-03-21T01:16:40.814Z,99916.37
2019-03-21T01:19:10.606Z,99914.30
2019-03-21T01:21:40.415Z,99921.18
2019-03-21T01:24:10.226Z,99916.19
2019-03-21T01:26:39.993Z,99921.86
2019-03-21T01:29:09.784Z,99918.67
2019-03-21T01:31:39.581Z,99914.91
2019-03-21T01:34:09.391Z,99917.61
2019-03-21T01:36:39.210Z,99919.09
2019-03-21T01:39:09.018Z,99916.75
2019-03-21T01:41:38.834Z,99920.97
2019-03-21T01:44:08.619Z,99913.22
2019-03-21T01:46:38.416Z,99913.87
2019-03-21T01:49:08.188Z,99908.61
2019-03-21T01:51:37.983Z,99907.38
2019-03-21T01:54:07.797Z,99903.13
2019-03-21T01:56:37.615Z,99891.46
2019-03-21T01:59:07.382Z,99897.83
2019-03-21T02:01:37.221Z,99890.97
2019-03-21T02:04:07.072Z,99891.34
2019-03-21T02:06:36.873Z,99887.38
2019-03-21T02:09:09.375Z,99883.17
2019-03-21T02:11:40.590Z,99883.73
2019-03-21T02:14:10.904Z,99884.88
2019-03-21T02:16:40.666Z,99891.33
2019-03-21T02:19:10.481Z,99888.64
2019-03-21T02:21:40.298Z,99884.23
2019-03-21T02:24:10.573Z,99883.66
2019-03-21T02:26:40.419Z,99881.23
2019-03-21T02:29:10.181Z,99876.02
2019-03-21T02:31:39.969Z,99882.52
2019-03-21T02:34:09.822Z,99880.60
2019-03-21T02:36:39.636Z,99876.11
2019-03-21T02:39:09.425Z,99875.54
2019-03-21T02:41:39.232Z,99875.56
2019-03-21T02:44:09.055Z,99876.97
2019-03-21T02:46:38.829Z,99870.88
2019-03-21T02:49:08.631Z,99868.00
2019-03-21T02:51:38.516Z,99867.34
2019-03-21T02:54:08.285Z,99871.95
2019-03-21T02:56:38.092Z,99864.36
2019-03-21T02:59:07.887Z,99870.52
2019-03-21T03:01:37.765Z,99868.56
2019-03-21T03:04:07.545Z,99868.77
2019-03-21T03:06:37.362Z,99868.48
2019-03-21T03:09:09.339Z,99864.80
2019-03-21T03:11:39.137Z,99866.44
2019-03-21T03:14:08.944Z,99864.80
2019-03-21T03:16:38.743Z,99858.16
2019-03-21T03:19:08.529Z,99854.89
2019-03-21T03:21:38.350Z,99856.27
2019-03-21T03:24:09.022Z,99853.80
2019-03-21T03:26:38.786Z,99850.20
2019-03-21T03:29:08.677Z,99851.55
2019-03-21T03:31:38.455Z,99847.67
2019-03-21T03:34:08.241Z,99851.70
2019-03-21T03:36:38.024Z,99844.82
2019-03-21T03:39:08.918Z,99853.14
2019-03-21T03:41:38.811Z,99857.83
2019-03-21T03:44:08.595Z,99864.44
2019-03-21T03:46:38.698Z,99869.00
2019-03-21T03:49:08.487Z,99872.14
2019-03-21T03:51:38.341Z,99874.75
2019-03-21T03:54:08.119Z,99877.11
2019-03-21T03:56:37.940Z,99884.56
2019-03-21T03:59:07.933Z,99887.88
2019-03-21T04:01:37.755Z,99896.20
2019-03-21T04:04:07.540Z,99888.84
2019-03-21T04:06:37.340Z,99893.65
2019-03-21T04:09:08.402Z,99892.44
2019-03-21T04:11:38.423Z,99890.13
2019-03-21T04:14:08.207Z,99891.09
2019-03-21T04:16:37.996Z,99882.98
2019-03-21T04:19:07.804Z,99884.19
2019-03-21T04:21:37.640Z,99890.00
2019-03-21T04:24:07.428Z,99890.80
2019-03-21T04:26:37.309Z,99894.45
2019-03-21T04:29:07.080Z,99895.19
2019-03-21T04:31:36.856Z,99896.71
2019-03-21T04:34:07.762Z,99899.41
2019-03-21T04:36:37.532Z,99902.36
2019-03-21T04:39:09.010Z,99898.39
2019-03-21T04:41:39.531Z,99902.52
2019-03-21T04:44:09.324Z,99896.81
2019-03-21T04:46:39.091Z,99898.28
2019-03-21T04:49:10.907Z,99895.63
2019-03-21T04:51:40.762Z,99895.44
2019-03-21T04:54:10.552Z,99898.17
2019-03-21T04:56:40.405Z,99889.73
2019-03-21T04:59:10.219Z,99894.19
2019-03-21T05:01:39.974Z,99889.53
2019-03-21T05:04:09.800Z,99887.84
2019-03-21T05:06:39.585Z,99891.27
2019-03-21T05:09:12.642Z,99891.60
2019-03-21T05:11:42.447Z,99892.92
2019-03-21T05:14:12.227Z,99891.34
2019-03-21T05:16:42.034Z,99887.89
2019-03-21T05:19:11.819Z,99893.08
2019-03-21T05:21:41.644Z,99888.36
2019-03-21T05:24:11.429Z,99894.55
2019-03-21T05:26:41.230Z,99899.70
2019-03-21T05:29:11.000Z,99894.22
2019-03-21T05:31:40.831Z,99887.50
2019-03-21T05:34:10.626Z,99884.90
2019-03-21T05:36:40.410Z,99893.08
2019-03-21T05:39:11.179Z,99889.61
2019-03-21T05:41:40.952Z,99900.66
2019-03-21T05:44:19.282Z,99899.47
2019-03-21T05:46:49.098Z,99902.98
2019-03-21T05:49:19.153Z,99900.19
2019-03-21T05:51:49.610Z,99902.43
2019-03-21T05:54:19.927Z,99902.06
2019-03-21T05:56:50.233Z,99910.02
2019-03-21T05:59:20.202Z,99905.22
2019-03-21T06:01:51.448Z,99905.76
2019-03-21T06:04:21.426Z,99912.09
2019-03-21T06:07:24.914Z,99913.06
2019-03-21T06:09:54.773Z,99920.13
2019-03-21T06:12:24.839Z,99922.28
2019-03-21T06:14:58.053Z,99917.14
2019-03-21T06:17:28.510Z,99918.44
2019-03-21T06:20:20.331Z,99916.81
2019-03-21T06:23:26.378Z,99911.88
2019-03-21T06:26:10.942Z,99920.60
2019-03-21T06:28:41.009Z,99923.22
2019-03-21T06:31:11.031Z,99914.77
2019-03-21T06:33:41.172Z,99917.22
2019-03-21T06:36:11.308Z,99918.23
2019-03-21T06:38:41.293Z,99909.26
2019-03-21T06:41:11.729Z,99920.60
2019-03-21T06:43:41.847Z,99919.87
2019-03-21T06:46:12.327Z,99916.27
2019-03-21T06:48:42.290Z,99917.75
2019-03-21T06:51:12.126Z,99916.11
2019-03-21T06:53:42.454Z,99919.28
2019-03-21T06:56:12.306Z,99919.66
2019-03-21T06:58:42.089Z,99916.37
2019-03-21T07:01:11.963Z,99916.15
2019-03-21T07:03:41.755Z,99920.02
2019-03-21T07:06:11.558Z,99919.06
2019-03-21T07:08:41.413Z,99912.92
2019-03-21T07:11:11.204Z,99917.22
2019-03-21T07:13:41.006Z,99915.05
2019-03-21T07:16:10.813Z,99920.91
2019-03-21T07:18:40.606Z,99916.02
2019-03-21T07:21:10.516Z,99914.59
2019-03-21T07:23:40.364Z,99915.98
2019-03-21T07:26:10.159Z,99911.95
2019-03-21T07:28:40.032Z,99918.38
2019-03-21T07:31:11.400Z,99916.13
2019-03-21T07:33:49.618Z,99923.67
2019-03-21T07:36:19.434Z,99920.40
2019-03-21T07:38:49.221Z,99913.31
2019-03-21T07:41:19.022Z,99913.81
2019-03-21T07:43:48.809Z,99921.55
2019-03-21T07:46:18.639Z,99911.88
2019-03-21T07:48:48.447Z,99917.15
2019-03-21T07:51:18.242Z,99920.42
2019-03-21T07:53:48.063Z,99917.50
2019-03-21T07:56:17.826Z,99921.59
2019-03-21T07:58:47.635Z,99914.12
2019-03-21T08:01:17.434Z,99919.72
2019-03-21T08:03:47.244Z,99922.47
2019-03-21T08:06:17.033Z,99914.97
2019-03-21T08:08:46.845Z,99913.02
2019-03-21T08:11:16.621Z,99915.33
2019-03-21T08:13:46.454Z,99921.70
2019-03-21T08:16:16.258Z,99922.78
2019-03-21T08:18:46.126Z,99917.64
2019-03-21T08:21:15.942Z,99918.40
2019-03-21T08:23:45.731Z,99915.40
2019-03-21T08:26:15.551Z,99913.49
2019-03-21T08:28:45.376Z,99912.20
2019-03-21T08:31:18.830Z,99901.33
2019-03-21T08:33:48.620Z,99913.09
2019-03-21T08:36:18.452Z,99903.82
2019-03-21T08:38:48.295Z,99906.83
2019-03-21T08:41:18.076Z,99908.52
2019-03-21T08:43:47.904Z,99915.39
2019-03-21T08:46:17.705Z,99909.47
2019-03-21T08:48:47.522Z,99911.59
2019-03-21T08:51:17.338Z,99915.02
2019-03-21T08:53:47.140Z,99912.90
2019-03-21T08:56:17.449Z,99910.74
2019-03-21T08:58:47.258Z,99909.39
2019-03-21T09:01:17.054Z,99902.58
2019-03-21T09:03:46.848Z,99903.02
2019-03-21T09:06:16.667Z,99903.60
2019-03-21T09:08:46.483Z,99913.21
2019-03-21T09:11:16.311Z,99912.23
2019-03-21T09:13:46.103Z,99906.78
2019-03-21T09:16:15.909Z,99905.29
2019-03-21T09:18:45.702Z,99905.80
2019-03-21T09:21:19.985Z,99905.73
2019-03-21T09:23:47.008Z,99901.29
2019-03-21T09:26:16.835Z,99903.26
2019-03-21T09:28:46.619Z,99896.95
2019-03-21T09:31:16.416Z,99894.38
2019-03-21T09:33:46.227Z,99893.16
2019-03-21T09:36:16.021Z,99890.14
2019-03-21T09:38:45.846Z,99896.13
2019-03-21T09:41:15.626Z,99891.70
2019-03-21T09:43:45.497Z,99879.70
2019-03-21T09:46:15.331Z,99872.11
2019-03-21T09:48:45.123Z,99876.55
2019-03-21T09:51:14.930Z,99873.55
2019-03-21T09:53:44.741Z,99873.39
2019-03-21T09:56:14.580Z,99871.02
2019-03-21T09:58:44.447Z,99861.72
2019-03-21T10:01:14.282Z,99857.91
2019-03-21T10:03:44.075Z,99859.64
2019-03-21T10:06:13.851Z,99867.02
2019-03-21T10:08:43.680Z,99860.74
2019-03-21T10:11:13.455Z,99855.95
2019-03-21T10:13:43.312Z,99866.29
2019-03-21T10:16:13.161Z,99857.42
2019-03-21T10:18:52.872Z,99846.05
2019-03-21T10:21:22.688Z,99847.09
2019-03-21T10:23:52.463Z,99846.89
2019-03-21T10:26:22.309Z,99844.64
2019-03-21T10:28:52.127Z,99837.20
2019-03-21T10:31:21.914Z,99833.42
2019-03-21T10:33:51.763Z,99831.13
2019-03-21T10:36:21.567Z,99825.55
2019-03-21T10:38:51.345Z,99825.37
2019-03-21T10:41:21.163Z,99818.00
2019-03-21T10:43:50.941Z,99817.07
2019-03-21T10:46:20.793Z,99813.50
2019-03-21T10:48:50.599Z,99808.75
2019-03-21T10:51:20.401Z,99814.20
2019-03-21T10:53:50.178Z,99812.88
2019-03-21T10:56:19.988Z,99813.69
2019-03-21T10:58:49.795Z,99815.39
2019-03-21T11:01:19.573Z,99813.80
2019-03-21T11:03:49.383Z,99802.64
2019-03-21T11:06:19.167Z,99798.08
2019-03-21T11:08:49.242Z,99791.81
2019-03-21T11:11:19.021Z,99791.50
2019-03-21T11:13:48.862Z,99788.24
2019-03-21T11:16:18.702Z,99776.86
2019-03-21T11:18:48.498Z,99776.04
2019-03-21T11:21:18.334Z,99779.69
2019-03-21T11:23:48.113Z,99769.62
2019-03-21T11:26:17.915Z,99767.87
2019-03-21T11:28:47.727Z,99761.16
2019-03-21T11:31:17.539Z,99772.16
2019-03-21T11:33:47.326Z,99767.80
2019-03-21T11:36:17.129Z,99766.30
2019-03-21T11:38:46.919Z,99762.59
2019-03-21T11:41:24.131Z,99766.66
2019-03-21T11:43:53.950Z,99760.39
2019-03-21T11:46:23.761Z,99756.81
2019-03-21T11:48:53.616Z,99759.77
2019-03-21T11:51:23.382Z,99747.98
2019-03-21T11:53:53.192Z,99737.48
2019-03-21T11:56:23.020Z,99734.33
2019-03-21T11:58:52.847Z,99727.36
2019-03-21T12:01:22.659Z,99732.36
2019-03-21T12:03:52.614Z,99735.27
2019-03-21T12:06:22.466Z,99729.53
2019-03-21T12:08:52.236Z,99721.62
2019-03-21T12:11:22.036Z,99719.48
2019-03-21T12:13:51.820Z,99703.24
2019-03-21T12:16:21.631Z,99716.59
2019-03-21T12:18:51.411Z,99704.90
2019-03-21T12:21:21.241Z,99696.33
2019-03-21T12:23:51.065Z,99695.63
2019-03-21T12:26:20.853Z,99704.47
2019-03-21T12:28:50.660Z,99694.39
2019-03-21T12:31:20.454Z,99696.47
2019-03-21T12:33:50.249Z,99690.94
2019-03-21T12:36:20.028Z,99692.89
2019-03-21T12:38:49.839Z,99673.67
2019-03-21T12:41:19.636Z,99685.36
2019-03-21T12:43:49.419Z,99676.97
2019-03-21T12:46:19.206Z,99680.47
2019-03-21T12:49:00.212Z,99670.94
2019-03-21T12:51:30.037Z,99664.81
2019-03-21T12:53:59.820Z,99664.16
2019-03-21T12:56:29.682Z,99664.37
2019-03-21T12:58:59.555Z,99663.80
2019-03-21T13:01:29.370Z,99661.16
2019-03-21T13:03:59.159Z,99658.88
2019-03-21T13:06:28.939Z,99658.41
2019-03-21T13:08:58.763Z,99653.61
2019-03-21T13:11:28.543Z,99648.52
2019-03-21T13:13:58.347Z,99639.72
2019-03-21T13:16:28.134Z,99640.01
2019-03-21T13:18:57.960Z,99638.23
2019-03-21T13:21:27.734Z,99627.41
2019-03-21T13:23:57.552Z,99627.41
2019-03-21T13:26:27.333Z,99631.23
2019-03-21T13:28:57.125Z,99627.45
2019-03-21T13:31:26.973Z,99627.45
2019-03-21T13:33:56.796Z,99622.31
2019-03-21T13:36:26.620Z,99625.80
2019-03-21T13:38:56.404Z,99627.33
2019-03-21T13:41:26.212Z,99622.52
2019-03-21T13:43:56.528Z,99613.41
2019-03-21T13:46:26.351Z,99614.08
2019-03-21T13:48:56.155Z,99611.25
2019-03-21T13:51:25.948Z,99604.81
2019-03-21T13:53:55.767Z,99604.46
2019-03-21T13:56:25.591Z,99596.75
2019-03-21T13:58:55.414Z,99599.16
2019-03-21T14:01:25.205Z,99588.83
2019-03-21T14:03:56.682Z,99585.23
2019-03-21T14:06:26.479Z,99579.91
2019-03-21T14:08:56.286Z,99578.39
2019-03-21T14:11:26.343Z,99582.47
2019-03-21T14:13:56.132Z,99589.72
2019-03-21T14:16:25.922Z,99582.00
2019-03-21T14:18:55.725Z,99577.61
2019-03-21T14:21:25.565Z,99575.25
2019-03-21T14:23:55.348Z,99558.28
2019-03-21T14:26:25.716Z,99560.48
2019-03-21T14:28:55.522Z,99557.88
2019-03-21T14:31:25.303Z,99561.59
2019-03-21T14:33:55.116Z,99552.89
2019-03-21T14:36:24.896Z,99559.20
2019-03-21T14:38:54.731Z,99553.88
2019-03-21T14:41:24.543Z,99554.06
2019-03-21T14:43:54.348Z,99552.13
2019-03-21T14:46:24.155Z,99558.37
2019-03-21T14:48:53.941Z,99553.33
2019-03-21T14:51:23.753Z,99550.43
2019-03-21T14:53:53.540Z,99547.39
2019-03-21T14:56:23.348Z,99549.95
2019-03-21T14:58:53.132Z,99551.14
2019-03-21T15:01:22.911Z,99542.19
2019-03-21T15:03:52.716Z,99555.04
2019-03-21T15:06:22.502Z,99551.71
2019-03-21T15:09:01.531Z,99548.22
2019-03-21T15:11:31.304Z,99548.45
2019-03-21T15:14:01.135Z,99546.16
2019-03-21T15:16:30.989Z,99540.88
2019-03-21T15:19:00.815Z,99537.21
2019-03-21T15:21:30.614Z,99537.95
2019-03-21T15:24:00.421Z,99540.12
2019-03-21T15:26:30.203Z,99541.77
2019-03-21T15:29:00.073Z,99536.45
2019-03-21T15:31:29.902Z,99530.16
2019-03-21T15:33:59.695Z,99531.69
2019-03-21T15:36:29.486Z,99521.18
2019-03-21T15:38:59.286Z,99526.02
2019-03-21T15:41:29.079Z,99534.50
2019-03-21T15:43:58.878Z,99530.38
2019-03-21T15:46:28.682Z,99526.31
2019-03-21T15:48:58.506Z,99526.30
2019-03-21T15:51:28.278Z,99524.59
2019-03-21T15:53:58.054Z,99521.27
2019-03-21T15:56:27.865Z,99517.27
2019-03-21T15:58:57.662Z,99519.30
2019-03-21T16:01:28.808Z,99513.72
2019-03-21T16:03:58.592Z,99520.23
2019-03-21T16:06:28.554Z,99520.34
2019-03-21T16:08:58.356Z,99514.84
2019-03-21T16:11:28.593Z,99518.05
2019-03-21T16:13:59.521Z,99518.28
2019-03-21T16:16:30.420Z,99510.48
2019-03-21T16:19:01.956Z,99512.77
2019-03-21T16:21:33.291Z,99515.28
2019-03-21T16:24:05.884Z,99517.25
2019-03-21T16:26:37.408Z,99507.96
2019-03-21T16:29:10.325Z,99508.65
2019-03-21T16:31:41.900Z,99508.53
2019-03-21T16:34:13.321Z,99504.06
2019-03-21T16:36:44.751Z,99508.22
2019-03-21T16:39:16.133Z,99508.77
2019-03-21T16:41:47.692Z,99511.89
2019-03-21T16:44:19.201Z,99503.18
2019-03-21T16:46:50.760Z,99502.49
2019-03-21T16:49:23.272Z,99508.42
2019-03-21T16:51:54.819Z,99505.13
2019-03-21T16:54:26.244Z,99500.66
2019-03-21T16:56:57.748Z,99504.58
2019-03-21T16:59:29.250Z,99507.91
2019-03-21T17:02:00.489Z,99511.69
2019-03-21T17:04:31.162Z,99512.38
2019-03-21T17:07:01.622Z,99508.72
2019-03-21T17:09:32.929Z,99508.03
2019-03-21T17:12:04.007Z,99503.89
2019-03-21T17:14:38.465Z,99503.89
2019-03-21T17:17:09.736Z,99506.89
2019-03-21T17:19:40.049Z,99511.92
2019-03-21T17:22:09.902Z,99509.17
2019-03-21T17:24:39.722Z,99509.62
2019-03-21T17:27:09.527Z,99515.12
2019-03-21T17:29:39.316Z,99516.97
2019-03-21T17:32:09.121Z,99520.83
2019-03-21T17:34:39.001Z,99522.42
2019-03-21T17:37:08.842Z,99522.59
2019-03-21T17:39:38.642Z,99531.98
2019-03-21T17:42:08.424Z,99534.60
2019-03-21T17:44:38.205Z,99532.59
2019-03-21T17:47:08.047Z,99539.66
2019-03-21T17:49:37.903Z,99536.78
2019-03-21T17:52:07.700Z,99540.53
2019-03-21T17:54:41.716Z,99538.45
2019-03-21T17:57:09.513Z,99536.16
2019-03-21T17:59:39.305Z,99538.88
2019-03-21T18:02:09.213Z,99543.84
2019-03-21T18:04:40.114Z,99546.91
2019-03-21T18:07:10.783Z,99553.34
2019-03-21T18:09:40.604Z,99554.48
2019-03-21T18:12:10.673Z,99553.44
2019-03-21T18:14:40.788Z,99554.09
2019-03-21T18:17:10.885Z,99552.61
2019-03-21T18:19:41.099Z,99548.68
2019-03-21T18:22:15.910Z,99548.38
2019-03-21T18:24:53.768Z,99554.07
2019-03-21T18:27:17.298Z,99557.64
2019-03-21T18:29:47.153Z,99559.39
2019-03-21T18:32:16.934Z,99563.67
2019-03-21T18:34:47.188Z,99558.25
2019-03-21T18:37:20.479Z,99561.31
2019-03-21T18:39:57.488Z,99557.13
2019-03-21T18:42:40.556Z,99565.79
2019-03-21T18:45:11.184Z,99565.55
2019-03-21T18:47:41.595Z,99567.99
2019-03-21T18:50:12.448Z,99571.05
2019-03-21T18:52:42.400Z,99562.05
2019-03-21T18:55:12.561Z,99561.89
2019-03-21T18:57:42.499Z,99566.98
2019-03-21T19:00:13.289Z,99571.12
2019-03-21T19:02:43.350Z,99570.25
2019-03-21T19:05:13.397Z,99574.58
2019-03-21T19:07:43.329Z,99564.45
2019-03-21T19:10:15.328Z,99567.72
2019-03-21T19:12:45.221Z,99567.47
2019-03-21T19:15:15.471Z,99567.86
2019-03-21T19:17:46.216Z,99566.25
2019-03-21T19:20:16.764Z,99569.47
2019-03-21T19:22:46.656Z,99571.11
2019-03-21T19:25:19.012Z,99570.14
2019-03-21T19:27:48.937Z,99568.03
2019-03-21T19:30:20.128Z,99569.36
2019-03-21T19:32:50.105Z,99564.53
2019-03-21T19:35:21.747Z,99567.76
2019-03-21T19:37:51.634Z,99566.80
2019-03-21T19:40:22.709Z,99570.77
2019-03-21T19:42:52.593Z,99578.31
2019-03-21T19:45:22.638Z,99578.06
2019-03-21T19:47:52.583Z,99584.47
2019-03-21T19:50:23.058Z,99588.20
2019-03-21T19:52:52.926Z,99587.97
2019-03-21T19:55:30.806Z,99586.14
2019-03-21T19:57:54.926Z,99590.19
2019-03-21T20:00:40.626Z,99582.23
2019-03-21T20:03:11.899Z,99578.84
2019-03-21T20:05:42.768Z,99588.27
2019-03-21T20:08:13.457Z,99587.53
2019-03-21T20:10:43.746Z,99585.23
2019-03-21T20:13:13.654Z,99594.80
2019-03-21T20:15:43.624Z,99602.42
2019-03-21T20:18:13.512Z,99596.30
2019-03-21T20:20:43.398Z,99594.38
2019-03-21T20:23:13.738Z,99596.42
2019-03-21T20:25:43.570Z,99600.55
2019-03-21T20:28:13.692Z,99596.94
2019-03-21T20:30:43.631Z,99603.40
2019-03-21T20:33:13.442Z,99608.05
2019-03-21T20:35:43.453Z,99601.28
2019-03-21T20:38:13.469Z,99605.88
2019-03-21T20:40:43.308Z,99603.27
2019-03-21T20:43:13.176Z,99604.92
2019-03-21T20:45:43.056Z,99614.52
2019-03-21T20:48:13.083Z,99613.27
2019-03-21T20:50:42.868Z,99615.19
2019-03-21T20:53:14.180Z,99611.80
2019-03-21T20:55:53.450Z,99607.17
2019-03-21T20:58:16.749Z,99609.22
2019-03-21T21:00:46.639Z,99610.69
2019-03-21T21:03:16.610Z,99611.95
2019-03-21T21:05:46.596Z,99609.70
2019-03-21T21:08:16.868Z,99601.71
2019-03-21T21:10:46.732Z,99605.38
2019-03-21T21:13:17.422Z,99611.34
2019-03-21T21:15:48.249Z,99612.41
2019-03-21T21:18:19.802Z,99612.23
2019-03-21T21:20:49.686Z,99610.52
2019-03-21T21:23:19.698Z,99607.51
2019-03-21T21:25:49.485Z,99605.77
2019-03-21T21:28:19.326Z,99608.66
2019-03-21T21:30:49.884Z,99610.03
2019-03-21T21:33:20.484Z,99610.28
2019-03-21T21:35:51.266Z,99607.88
2019-03-21T21:38:21.077Z,99612.17
2019-03-21T21:40:51.023Z,99613.34
2019-03-21T21:43:21.047Z,99610.62
2019-03-21T21:45:50.957Z,99605.00
2019-03-21T21:48:20.963Z,99606.73
2019-03-21T21:50:50.997Z,99613.66
2019-03-21T21:53:20.935Z,99613.69
2019-03-21T21:55:50.962Z,99606.11
2019-03-21T21:58:21.255Z,99601.30
2019-03-21T22:00:51.313Z,99608.50
2019-03-21T22:03:38.283Z,99606.58
2019-03-21T22:06:08.329Z,99608.02
2019-03-21T22:08:38.283Z,99606.69
2019-03-21T22:11:08.196Z,99602.81
2019-03-21T22:13:38.118Z,99595.56
2019-03-21T22:16:10.081Z,99600.87
2019-03-21T22:18:39.736Z,99604.47
2019-03-21T22:21:09.618Z,99598.19
2019-03-21T22:23:39.568Z,99598.64
2019-03-21T22:26:09.487Z,99600.42
2019-03-21T22:28:39.482Z,99596.47
2019-03-21T22:31:09.364Z,99597.99
2019-03-21T22:33:39.150Z,99597.99
2019-03-21T22:36:09.406Z,99601.81
2019-03-21T22:38:39.262Z,99604.91
2019-03-21T22:41:09.516Z,99606.80
2019-03-21T22:43:39.349Z,99608.56
2019-03-21T22:46:09.848Z,99607.98
2019-03-21T22:48:40.051Z,99606.42
2019-03-21T22:51:10.222Z,99611.92
2019-03-21T22:53:40.041Z,99607.98
2019-03-21T22:56:09.850Z,99604.17
2019-03-21T22:58:39.661Z,99599.24
2019-03-21T23:01:10.082Z,99595.05
2019-03-21T23:03:39.894Z,99593.89
2019-03-21T23:06:09.869Z,99598.17
2019-03-21T23:08:39.720Z,99593.84
2019-03-21T23:11:09.869Z,99592.50
2019-03-21T23:13:39.639Z,99591.66
2019-03-21T23:16:09.435Z,99585.62
2019-03-21T23:18:39.456Z,99586.43
2019-03-21T23:21:09.366Z,99582.95
2019-03-21T23:23:39.299Z,99581.86
2019-03-21T23:26:09.310Z,99579.56
2019-03-21T23:28:39.110Z,99588.58
2019-03-21T23:31:08.966Z,99584.48
2019-03-21T23:33:38.806Z,99587.48
2019-03-21T23:36:08.555Z,99587.48
2019-03-21T23:38:38.367Z,99588.69
2019-03-21T23:41:08.151Z,99583.67
2019-03-21T23:43:37.968Z,99588.21
2019-03-21T23:46:07.746Z,99595.59
2019-03-21T23:48:37.589Z,99594.51
2019-03-21T23:51:07.385Z,99599.13
2019-03-21T23:53:37.180Z,99603.05
2019-03-21T23:56:06.986Z,99596.66
2019-03-21T23:58:36.772Z,99595.77
